sensor_id;sensor_type;location;lat;lon;timestamp;P1;durP1;ratioP1;P2;durP2;ratioP2
64854;SDS011;51321;50.428;8.378;2022-09-03T00:00:45;2.88;;;0.85;;
64854;SDS011;51321;50.428;8.378;2022-09-03T00:03:31;5.05;;;0.60;;
64854;SDS011;51321;50.428;8.378;2022-09-03T00:06:20;2.65;;;0.50;;
64854;SDS011;51321;50.428;8.378;2022-09-03T00:09:04;4.80;;;0.70;;
64854;SDS011;51321;50.428;8.378;2022-09-03T00:11:51;1.10;;;0.55;;
64854;SDS011;51321;50.428;8.378;2022-09-03T00:14:40;2.55;;;1.30;;
64854;SDS011;51321;50.428;8.378;2022-09-03T00:17:26;1.33;;;0.73;;
64854;SDS011;51321;50.428;8.378;2022-09-03T00:20:11;3.22;;;0.80;;
64854;SDS011;51321;50.428;8.378;2022-09-03T00:22:56;1.35;;;0.70;;
64854;SDS011;51321;50.428;8.378;2022-09-03T00:25:41;1.30;;;0.68;;
64854;SDS011;51321;50.428;8.378;2022-09-03T00:28:25;1.40;;;0.70;;
64854;SDS011;51321;50.428;8.378;2022-09-03T00:31:12;1.85;;;0.70;;
64854;SDS011;51321;50.428;8.378;2022-09-03T00:33:57;1.50;;;0.60;;
64854;SDS011;51321;50.428;8.378;2022-09-03T00:36:43;4.60;;;0.70;;
64854;SDS011;51321;50.428;8.378;2022-09-03T00:39:25;2.80;;;1.10;;
64854;SDS011;51321;50.428;8.378;2022-09-03T00:42:11;3.97;;;0.73;;
64854;SDS011;51321;50.428;8.378;2022-09-03T00:45:12;3.97;;;0.82;;
64854;SDS011;51321;50.428;8.378;2022-09-03T00:48:10;2.05;;;1.13;;
64854;SDS011;51321;50.428;8.378;2022-09-03T00:51:06;3.67;;;0.90;;
64854;SDS011;51321;50.428;8.378;2022-09-03T00:53:58;2.92;;;1.33;;
64854;SDS011;51321;50.428;8.378;2022-09-03T00:56:46;5.95;;;1.00;;
64854;SDS011;51321;50.428;8.378;2022-09-03T00:59:32;2.25;;;0.80;;
64854;SDS011;51321;50.428;8.378;2022-09-03T01:02:22;2.17;;;1.23;;
64854;SDS011;51321;50.428;8.378;2022-09-03T01:05:14;4.82;;;1.25;;
64854;SDS011;51321;50.428;8.378;2022-09-03T01:08:06;4.43;;;1.40;;
64854;SDS011;51321;50.428;8.378;2022-09-03T01:11:01;3.05;;;1.23;;
64854;SDS011;51321;50.428;8.378;2022-09-03T01:13:55;2.95;;;1.02;;
64854;SDS011;51321;50.428;8.378;2022-09-03T01:16:45;3.20;;;0.77;;
64854;SDS011;51321;50.428;8.378;2022-09-03T01:19:36;1.67;;;1.10;;
64854;SDS011;51321;50.428;8.378;2022-09-03T01:22:46;3.75;;;0.95;;
64854;SDS011;51321;50.428;8.378;2022-09-03T01:25:48;4.20;;;1.02;;
64854;SDS011;51321;50.428;8.378;2022-09-03T01:28:40;2.72;;;1.15;;
64854;SDS011;51321;50.428;8.378;2022-09-03T01:31:35;2.00;;;0.90;;
64854;SDS011;51321;50.428;8.378;2022-09-03T01:34:23;3.70;;;0.82;;
64854;SDS011;51321;50.428;8.378;2022-09-03T01:37:18;3.60;;;1.00;;
64854;SDS011;51321;50.428;8.378;2022-09-03T01:40:09;2.67;;;0.90;;
64854;SDS011;51321;50.428;8.378;2022-09-03T01:43:04;3.72;;;0.82;;
64854;SDS011;51321;50.428;8.378;2022-09-03T01:46:12;0.95;;;0.50;;
64854;SDS011;51321;50.428;8.378;2022-09-03T01:48:59;3.00;;;0.90;;
64854;SDS011;51321;50.428;8.378;2022-09-03T01:51:44;1.67;;;0.80;;
64854;SDS011;51321;50.428;8.378;2022-09-03T01:57:38;1.63;;;0.73;;
64854;SDS011;51321;50.428;8.378;2022-09-03T02:00:25;1.02;;;0.60;;
64854;SDS011;51321;50.428;8.378;2022-09-03T02:03:09;0.88;;;0.60;;
64854;SDS011;51321;50.428;8.378;2022-09-03T02:05:51;1.63;;;0.80;;
64854;SDS011;51321;50.428;8.378;2022-09-03T02:08:32;1.42;;;0.80;;
64854;SDS011;51321;50.428;8.378;2022-09-03T02:11:12;1.42;;;0.68;;
64854;SDS011;51321;50.428;8.378;2022-09-03T02:13:53;5.45;;;0.80;;
64854;SDS011;51321;50.428;8.378;2022-09-03T02:16:37;2.10;;;0.60;;
64854;SDS011;51321;50.428;8.378;2022-09-03T02:19:19;1.25;;;0.65;;
64854;SDS011;51321;50.428;8.378;2022-09-03T02:22:02;1.70;;;0.70;;
64854;SDS011;51321;50.428;8.378;2022-09-03T02:24:43;1.00;;;0.80;;
64854;SDS011;51321;50.428;8.378;2022-09-03T02:27:24;2.00;;;0.90;;
64854;SDS011;51321;50.428;8.378;2022-09-03T02:30:05;1.67;;;0.65;;
64854;SDS011;51321;50.428;8.378;2022-09-03T02:32:47;1.90;;;0.88;;
64854;SDS011;51321;50.428;8.378;2022-09-03T02:35:29;0.80;;;0.70;;
64854;SDS011;51321;50.428;8.378;2022-09-03T02:38:10;3.73;;;0.60;;
64854;SDS011;51321;50.428;8.378;2022-09-03T02:40:51;1.80;;;0.80;;
64854;SDS011;51321;50.428;8.378;2022-09-03T02:43:33;0.82;;;0.60;;
64854;SDS011;51321;50.428;8.378;2022-09-03T02:46:20;3.00;;;0.70;;
64854;SDS011;51321;50.428;8.378;2022-09-03T02:49:03;2.40;;;0.77;;
64854;SDS011;51321;50.428;8.378;2022-09-03T02:51:45;1.67;;;0.60;;
64854;SDS011;51321;50.428;8.378;2022-09-03T02:54:26;1.13;;;0.70;;
64854;SDS011;51321;50.428;8.378;2022-09-03T02:57:07;1.13;;;0.65;;
64854;SDS011;51321;50.428;8.378;2022-09-03T02:59:49;2.08;;;0.70;;
64854;SDS011;51321;50.428;8.378;2022-09-03T03:02:29;2.45;;;0.77;;
64854;SDS011;51321;50.428;8.378;2022-09-03T03:05:11;1.73;;;0.75;;
64854;SDS011;51321;50.428;8.378;2022-09-03T03:08:01;2.42;;;0.60;;
64854;SDS011;51321;50.428;8.378;2022-09-03T03:10:42;3.35;;;0.80;;
64854;SDS011;51321;50.428;8.378;2022-09-03T03:13:23;1.30;;;0.63;;
64854;SDS011;51321;50.428;8.378;2022-09-03T03:16:04;1.17;;;0.70;;
64854;SDS011;51321;50.428;8.378;2022-09-03T03:18:45;0.85;;;0.70;;
64854;SDS011;51321;50.428;8.378;2022-09-03T03:21:25;1.95;;;1.00;;
64854;SDS011;51321;50.428;8.378;2022-09-03T03:24:07;1.75;;;0.65;;
64854;SDS011;51321;50.428;8.378;2022-09-03T03:26:48;2.72;;;0.73;;
64854;SDS011;51321;50.428;8.378;2022-09-03T03:29:29;2.28;;;0.77;;
64854;SDS011;51321;50.428;8.378;2022-09-03T03:32:09;1.23;;;0.77;;
64854;SDS011;51321;50.428;8.378;2022-09-03T03:34:50;3.70;;;1.40;;
64854;SDS011;51321;50.428;8.378;2022-09-03T03:37:30;2.35;;;1.13;;
64854;SDS011;51321;50.428;8.378;2022-09-03T03:40:14;1.70;;;0.80;;
64854;SDS011;51321;50.428;8.378;2022-09-03T03:42:56;1.50;;;1.05;;
64854;SDS011;51321;50.428;8.378;2022-09-03T03:45:37;1.67;;;0.98;;
64854;SDS011;51321;50.428;8.378;2022-09-03T03:48:17;1.88;;;0.75;;
64854;SDS011;51321;50.428;8.378;2022-09-03T03:50:59;1.42;;;0.70;;
64854;SDS011;51321;50.428;8.378;2022-09-03T03:53:41;1.70;;;1.17;;
64854;SDS011;51321;50.428;8.378;2022-09-03T03:56:24;1.08;;;0.47;;
64854;SDS011;51321;50.428;8.378;2022-09-03T03:59:06;0.98;;;0.68;;
64854;SDS011;51321;50.428;8.378;2022-09-03T04:01:46;0.63;;;0.50;;
64854;SDS011;51321;50.428;8.378;2022-09-03T04:04:28;0.95;;;0.47;;
64854;SDS011;51321;50.428;8.378;2022-09-03T04:07:09;1.02;;;0.52;;
64854;SDS011;51321;50.428;8.378;2022-09-03T04:09:49;2.75;;;0.77;;
64854;SDS011;51321;50.428;8.378;2022-09-03T04:12:31;1.75;;;0.60;;
64854;SDS011;51321;50.428;8.378;2022-09-03T04:15:12;1.03;;;0.50;;
64854;SDS011;51321;50.428;8.378;2022-09-03T04:17:53;3.22;;;0.70;;
64854;SDS011;51321;50.428;8.378;2022-09-03T04:20:34;1.33;;;0.85;;
64854;SDS011;51321;50.428;8.378;2022-09-03T04:23:15;2.45;;;0.75;;
64854;SDS011;51321;50.428;8.378;2022-09-03T04:25:56;1.45;;;0.70;;
64854;SDS011;51321;50.428;8.378;2022-09-03T04:28:38;2.83;;;0.80;;
64854;SDS011;51321;50.428;8.378;2022-09-03T04:31:19;1.70;;;0.82;;
64854;SDS011;51321;50.428;8.378;2022-09-03T04:34:00;1.25;;;0.80;;
64854;SDS011;51321;50.428;8.378;2022-09-03T04:36:40;1.60;;;0.80;;
64854;SDS011;51321;50.428;8.378;2022-09-03T04:39:20;1.90;;;0.80;;
64854;SDS011;51321;50.428;8.378;2022-09-03T04:42:01;2.47;;;1.40;;
64854;SDS011;51321;50.428;8.378;2022-09-03T04:44:43;3.10;;;1.00;;
64854;SDS011;51321;50.428;8.378;2022-09-03T04:47:23;3.43;;;1.07;;
64854;SDS011;51321;50.428;8.378;2022-09-03T04:50:06;1.35;;;0.80;;
64854;SDS011;51321;50.428;8.378;2022-09-03T04:52:47;3.80;;;0.98;;
64854;SDS011;51321;50.428;8.378;2022-09-03T04:55:28;4.25;;;1.20;;
64854;SDS011;51321;50.428;8.378;2022-09-03T04:58:12;2.60;;;1.00;;
64854;SDS011;51321;50.428;8.378;2022-09-03T05:00:54;1.70;;;0.80;;
64854;SDS011;51321;50.428;8.378;2022-09-03T05:03:34;2.00;;;1.00;;
64854;SDS011;51321;50.428;8.378;2022-09-03T05:06:16;2.08;;;0.70;;
64854;SDS011;51321;50.428;8.378;2022-09-03T05:08:56;1.05;;;0.70;;
64854;SDS011;51321;50.428;8.378;2022-09-03T05:11:38;2.75;;;0.95;;
64854;SDS011;51321;50.428;8.378;2022-09-03T05:14:18;2.15;;;0.80;;
64854;SDS011;51321;50.428;8.378;2022-09-03T05:17:00;3.58;;;0.98;;
64854;SDS011;51321;50.428;8.378;2022-09-03T05:19:40;1.65;;;0.85;;
64854;SDS011;51321;50.428;8.378;2022-09-03T05:22:21;2.15;;;0.68;;
64854;SDS011;51321;50.428;8.378;2022-09-03T05:25:01;2.28;;;0.88;;
64854;SDS011;51321;50.428;8.378;2022-09-03T05:27:42;2.53;;;0.60;;
64854;SDS011;51321;50.428;8.378;2022-09-03T05:30:23;1.00;;;0.55;;
64854;SDS011;51321;50.428;8.378;2022-09-03T05:33:05;1.85;;;0.70;;
64854;SDS011;51321;50.428;8.378;2022-09-03T05:35:46;1.83;;;1.08;;
64854;SDS011;51321;50.428;8.378;2022-09-03T05:38:27;3.53;;;0.65;;
64854;SDS011;51321;50.428;8.378;2022-09-03T05:41:08;2.13;;;0.65;;
64854;SDS011;51321;50.428;8.378;2022-09-03T05:43:50;1.67;;;0.70;;
64854;SDS011;51321;50.428;8.378;2022-09-03T05:46:32;2.85;;;0.82;;
64854;SDS011;51321;50.428;8.378;2022-09-03T05:49:17;2.53;;;0.80;;
64854;SDS011;51321;50.428;8.378;2022-09-03T05:51:57;2.73;;;0.73;;
64854;SDS011;51321;50.428;8.378;2022-09-03T05:54:38;1.77;;;0.50;;
64854;SDS011;51321;50.428;8.378;2022-09-03T05:57:18;3.25;;;0.68;;
64854;SDS011;51321;50.428;8.378;2022-09-03T05:59:59;2.13;;;0.60;;
64854;SDS011;51321;50.428;8.378;2022-09-03T06:02:39;2.58;;;0.93;;
64854;SDS011;51321;50.428;8.378;2022-09-03T06:05:22;0.88;;;0.55;;
64854;SDS011;51321;50.428;8.378;2022-09-03T06:08:02;1.43;;;0.60;;
64854;SDS011;51321;50.428;8.378;2022-09-03T06:10:43;2.63;;;0.70;;
64854;SDS011;51321;50.428;8.378;2022-09-03T06:13:24;1.67;;;0.60;;
64854;SDS011;51321;50.428;8.378;2022-09-03T06:16:05;2.00;;;0.68;;
64854;SDS011;51321;50.428;8.378;2022-09-03T06:18:46;1.73;;;0.83;;
64854;SDS011;51321;50.428;8.378;2022-09-03T06:21:28;1.77;;;0.90;;
64854;SDS011;51321;50.428;8.378;2022-09-03T06:24:09;1.70;;;0.98;;
64854;SDS011;51321;50.428;8.378;2022-09-03T06:26:50;1.95;;;0.93;;
64854;SDS011;51321;50.428;8.378;2022-09-03T06:29:31;7.40;;;1.20;;
64854;SDS011;51321;50.428;8.378;2022-09-03T06:32:13;3.60;;;1.08;;
64854;SDS011;51321;50.428;8.378;2022-09-03T06:34:53;3.00;;;1.00;;
64854;SDS011;51321;50.428;8.378;2022-09-03T06:37:39;2.22;;;0.90;;
64854;SDS011;51321;50.428;8.378;2022-09-03T06:40:20;2.70;;;0.95;;
64854;SDS011;51321;50.428;8.378;2022-09-03T06:43:01;1.48;;;0.60;;
64854;SDS011;51321;50.428;8.378;2022-09-03T06:45:41;1.58;;;0.80;;
64854;SDS011;51321;50.428;8.378;2022-09-03T06:48:22;5.00;;;1.40;;
64854;SDS011;51321;50.428;8.378;2022-09-03T06:51:03;2.80;;;1.25;;
64854;SDS011;51321;50.428;8.378;2022-09-03T06:53:47;3.47;;;1.60;;
64854;SDS011;51321;50.428;8.378;2022-09-03T06:56:29;2.85;;;1.27;;
64854;SDS011;51321;50.428;8.378;2022-09-03T06:59:10;2.53;;;1.55;;
64854;SDS011;51321;50.428;8.378;2022-09-03T07:01:52;2.95;;;1.35;;
64854;SDS011;51321;50.428;8.378;2022-09-03T07:04:33;4.45;;;1.52;;
64854;SDS011;51321;50.428;8.378;2022-09-03T07:07:14;3.20;;;1.30;;
64854;SDS011;51321;50.428;8.378;2022-09-03T07:09:55;2.20;;;1.05;;
64854;SDS011;51321;50.428;8.378;2022-09-03T07:12:36;3.03;;;1.20;;
64854;SDS011;51321;50.428;8.378;2022-09-03T07:15:16;5.10;;;2.08;;
64854;SDS011;51321;50.428;8.378;2022-09-03T07:17:57;3.30;;;2.00;;
64854;SDS011;51321;50.428;8.378;2022-09-03T07:20:38;6.28;;;1.83;;
64854;SDS011;51321;50.428;8.378;2022-09-03T07:23:19;4.90;;;2.80;;
64854;SDS011;51321;50.428;8.378;2022-09-03T07:26:02;6.55;;;1.98;;
64854;SDS011;51321;50.428;8.378;2022-09-03T07:28:44;6.57;;;2.20;;
64854;SDS011;51321;50.428;8.378;2022-09-03T07:31:25;8.45;;;2.90;;
64854;SDS011;51321;50.428;8.378;2022-09-03T07:34:08;7.55;;;2.90;;
64854;SDS011;51321;50.428;8.378;2022-09-03T07:39:30;10.15;;;3.10;;
64854;SDS011;51321;50.428;8.378;2022-09-03T07:42:13;4.88;;;2.55;;
64854;SDS011;51321;50.428;8.378;2022-09-03T07:44:54;5.43;;;2.67;;
64854;SDS011;51321;50.428;8.378;2022-09-03T07:47:36;5.30;;;2.05;;
64854;SDS011;51321;50.428;8.378;2022-09-03T07:50:16;2.97;;;1.35;;
64854;SDS011;51321;50.428;8.378;2022-09-03T07:52:57;2.90;;;1.00;;
64854;SDS011;51321;50.428;8.378;2022-09-03T07:55:38;1.50;;;1.10;;
64854;SDS011;51321;50.428;8.378;2022-09-03T07:58:19;2.30;;;1.10;;
64854;SDS011;51321;50.428;8.378;2022-09-03T08:01:03;2.58;;;1.10;;
64854;SDS011;51321;50.428;8.378;2022-09-03T08:03:46;3.65;;;1.75;;
64854;SDS011;51321;50.428;8.378;2022-09-03T08:06:28;4.40;;;1.10;;
64854;SDS011;51321;50.428;8.378;2022-09-03T08:09:10;7.10;;;1.70;;
64854;SDS011;51321;50.428;8.378;2022-09-03T08:11:51;2.25;;;1.38;;
64854;SDS011;51321;50.428;8.378;2022-09-03T08:14:33;5.63;;;2.08;;
64854;SDS011;51321;50.428;8.378;2022-09-03T08:17:14;2.07;;;1.20;;
64854;SDS011;51321;50.428;8.378;2022-09-03T08:19:54;3.08;;;1.27;;
64854;SDS011;51321;50.428;8.378;2022-09-03T08:22:36;1.37;;;1.07;;
64854;SDS011;51321;50.428;8.378;2022-09-03T08:25:17;2.10;;;1.10;;
64854;SDS011;51321;50.428;8.378;2022-09-03T08:27:57;1.67;;;1.05;;
64854;SDS011;51321;50.428;8.378;2022-09-03T08:30:40;2.45;;;1.00;;
64854;SDS011;51321;50.428;8.378;2022-09-03T08:33:20;2.80;;;1.00;;
64854;SDS011;51321;50.428;8.378;2022-09-03T08:36:15;1.63;;;0.80;;
64854;SDS011;51321;50.428;8.378;2022-09-03T08:38:57;1.85;;;1.00;;
64854;SDS011;51321;50.428;8.378;2022-09-03T08:41:47;2.15;;;0.65;;
64854;SDS011;51321;50.428;8.378;2022-09-03T08:44:52;1.73;;;0.90;;
64854;SDS011;51321;50.428;8.378;2022-09-03T08:47:38;2.78;;;0.90;;
64854;SDS011;51321;50.428;8.378;2022-09-03T08:50:22;2.03;;;0.82;;
64854;SDS011;51321;50.428;8.378;2022-09-03T08:53:06;1.58;;;0.75;;
64854;SDS011;51321;50.428;8.378;2022-09-03T08:55:52;1.83;;;1.05;;
64854;SDS011;51321;50.428;8.378;2022-09-03T08:58:37;2.35;;;0.70;;
64854;SDS011;51321;50.428;8.378;2022-09-03T09:01:25;3.70;;;0.80;;
64854;SDS011;51321;50.428;8.378;2022-09-03T09:04:18;1.95;;;0.80;;
64854;SDS011;51321;50.428;8.378;2022-09-03T09:07:16;2.00;;;0.80;;
64854;SDS011;51321;50.428;8.378;2022-09-03T09:10:02;1.15;;;0.60;;
64854;SDS011;51321;50.428;8.378;2022-09-03T09:12:51;1.38;;;0.70;;
64854;SDS011;51321;50.428;8.378;2022-09-03T09:15:45;1.60;;;0.88;;
64854;SDS011;51321;50.428;8.378;2022-09-03T09:18:37;1.70;;;0.90;;
64854;SDS011;51321;50.428;8.378;2022-09-03T09:21:27;1.77;;;0.68;;
64854;SDS011;51321;50.428;8.378;2022-09-03T09:24:12;4.15;;;0.90;;
64854;SDS011;51321;50.428;8.378;2022-09-03T09:27:00;2.40;;;0.70;;
64854;SDS011;51321;50.428;8.378;2022-09-03T09:29:45;1.33;;;0.65;;
64854;SDS011;51321;50.428;8.378;2022-09-03T09:32:27;2.50;;;0.75;;
64854;SDS011;51321;50.428;8.378;2022-09-03T09:35:09;4.15;;;0.93;;
64854;SDS011;51321;50.428;8.378;2022-09-03T09:37:52;5.95;;;0.90;;
64854;SDS011;51321;50.428;8.378;2022-09-03T09:40:34;1.75;;;0.90;;
64854;SDS011;51321;50.428;8.378;2022-09-03T09:46:04;1.02;;;0.73;;
64854;SDS011;51321;50.428;8.378;2022-09-03T09:48:47;1.58;;;0.98;;
64854;SDS011;51321;50.428;8.378;2022-09-03T09:51:30;3.03;;;0.90;;
64854;SDS011;51321;50.428;8.378;2022-09-03T09:54:13;1.75;;;0.73;;
64854;SDS011;51321;50.428;8.378;2022-09-03T09:56:59;1.38;;;1.00;;
64854;SDS011;51321;50.428;8.378;2022-09-03T09:59:41;4.25;;;1.05;;
64854;SDS011;51321;50.428;8.378;2022-09-03T10:02:23;1.60;;;0.90;;
64854;SDS011;51321;50.428;8.378;2022-09-03T10:05:12;3.53;;;1.10;;
64854;SDS011;51321;50.428;8.378;2022-09-03T10:07:54;1.02;;;0.80;;
64854;SDS011;51321;50.428;8.378;2022-09-03T10:10:40;2.70;;;0.88;;
64854;SDS011;51321;50.428;8.378;2022-09-03T10:13:29;1.95;;;0.93;;
64854;SDS011;51321;50.428;8.378;2022-09-03T10:16:21;3.63;;;1.10;;
64854;SDS011;51321;50.428;8.378;2022-09-03T10:19:07;1.23;;;0.70;;
64854;SDS011;51321;50.428;8.378;2022-09-03T10:21:56;1.17;;;0.90;;
64854;SDS011;51321;50.428;8.378;2022-09-03T10:24:46;1.92;;;1.10;;
64854;SDS011;51321;50.428;8.378;2022-09-03T11:29:52;2.45;;;1.00;;
64854;SDS011;51321;50.428;8.378;2022-09-03T11:32:20;2.70;;;1.13;;
64854;SDS011;51321;50.428;8.378;2022-09-03T11:34:46;2.20;;;0.90;;
64854;SDS011;51321;50.428;8.378;2022-09-03T11:37:17;1.20;;;0.80;;
64854;SDS011;51321;50.428;8.378;2022-09-03T11:39:41;2.05;;;0.75;;
64854;SDS011;51321;50.428;8.378;2022-09-03T11:44:34;1.05;;;0.70;;
64854;SDS011;51321;50.428;8.378;2022-09-03T11:46:59;1.30;;;0.80;;
64854;SDS011;51321;50.428;8.378;2022-09-03T11:49:26;3.55;;;1.10;;
64854;SDS011;51321;50.428;8.378;2022-09-03T11:51:54;1.95;;;1.08;;
64854;SDS011;51321;50.428;8.378;2022-09-03T11:54:25;1.50;;;0.80;;
64854;SDS011;51321;50.428;8.378;2022-09-03T11:56:48;2.85;;;1.10;;
64854;SDS011;51321;50.428;8.378;2022-09-03T11:59:15;1.73;;;0.82;;
64854;SDS011;51321;50.428;8.378;2022-09-03T12:01:41;1.02;;;0.77;;
64854;SDS011;51321;50.428;8.378;2022-09-03T12:06:41;2.72;;;1.40;;
64854;SDS011;51321;50.428;8.378;2022-09-03T12:09:23;2.60;;;1.45;;
64854;SDS011;51321;50.428;8.378;2022-09-03T12:11:59;2.40;;;1.60;;
64854;SDS011;51321;50.428;8.378;2022-09-03T12:14:35;1.73;;;1.30;;
64854;SDS011;51321;50.428;8.378;2022-09-03T12:17:10;2.42;;;1.30;;
64854;SDS011;51321;50.428;8.378;2022-09-03T12:19:40;3.38;;;1.10;;
64854;SDS011;51321;50.428;8.378;2022-09-03T12:22:12;3.00;;;1.05;;
64854;SDS011;51321;50.428;8.378;2022-09-03T12:24:37;0.98;;;0.68;;
64854;SDS011;51321;50.428;8.378;2022-09-03T12:27:05;1.30;;;0.90;;
64854;SDS011;51321;50.428;8.378;2022-09-03T12:29:31;2.75;;;1.00;;
64854;SDS011;51321;50.428;8.378;2022-09-03T12:31:53;2.45;;;0.90;;
64854;SDS011;51321;50.428;8.378;2022-09-03T12:34:17;1.70;;;1.00;;
64854;SDS011;51321;50.428;8.378;2022-09-03T12:36:43;3.05;;;1.20;;
64854;SDS011;51321;50.428;8.378;2022-09-03T12:39:07;2.67;;;1.20;;
64854;SDS011;51321;50.428;8.378;2022-09-03T12:41:30;1.70;;;0.95;;
64854;SDS011;51321;50.428;8.378;2022-09-03T12:43:57;2.38;;;1.10;;
64854;SDS011;51321;50.428;8.378;2022-09-03T12:46:24;1.38;;;0.75;;
64854;SDS011;51321;50.428;8.378;2022-09-03T12:48:54;3.90;;;0.70;;
64854;SDS011;51321;50.428;8.378;2022-09-03T12:51:24;1.67;;;0.93;;
64854;SDS011;51321;50.428;8.378;2022-09-03T12:53:49;1.77;;;0.60;;
64854;SDS011;51321;50.428;8.378;2022-09-03T12:56:14;3.42;;;0.90;;
64854;SDS011;51321;50.428;8.378;2022-09-03T12:58:39;1.75;;;0.90;;
64854;SDS011;51321;50.428;8.378;2022-09-03T13:01:10;1.48;;;0.80;;
64854;SDS011;51321;50.428;8.378;2022-09-03T13:03:40;1.10;;;0.60;;
64854;SDS011;51321;50.428;8.378;2022-09-03T13:06:08;2.88;;;0.75;;
64854;SDS011;51321;50.428;8.378;2022-09-03T13:08:51;3.13;;;0.80;;
64854;SDS011;51321;50.428;8.378;2022-09-03T13:11:22;2.50;;;0.70;;
64854;SDS011;51321;50.428;8.378;2022-09-03T13:13:55;1.65;;;0.70;;
64854;SDS011;51321;50.428;8.378;2022-09-03T13:19:26;2.85;;;0.85;;
64854;SDS011;51321;50.428;8.378;2022-09-03T13:21:57;0.85;;;0.70;;
64854;SDS011;51321;50.428;8.378;2022-09-03T13:24:42;1.08;;;0.80;;
64854;SDS011;51321;50.428;8.378;2022-09-03T13:27:17;0.68;;;0.47;;
64854;SDS011;51321;50.428;8.378;2022-09-03T13:29:53;1.05;;;0.52;;
64854;SDS011;51321;50.428;8.378;2022-09-03T13:32:27;1.67;;;0.68;;
64854;SDS011;51321;50.428;8.378;2022-09-03T13:35:01;1.33;;;0.57;;
64854;SDS011;51321;50.428;8.378;2022-09-03T13:37:31;1.13;;;0.70;;
64854;SDS011;51321;50.428;8.378;2022-09-03T13:40:02;1.42;;;0.68;;
64854;SDS011;51321;50.428;8.378;2022-09-03T13:42:36;2.80;;;0.70;;
64854;SDS011;51321;50.428;8.378;2022-09-03T13:45:14;0.90;;;0.60;;
64854;SDS011;51321;50.428;8.378;2022-09-03T13:47:51;0.80;;;0.60;;
64854;SDS011;51321;50.428;8.378;2022-09-03T13:50:41;2.58;;;0.70;;
64854;SDS011;51321;50.428;8.378;2022-09-03T13:53:11;0.80;;;0.70;;
64854;SDS011;51321;50.428;8.378;2022-09-03T13:55:43;1.45;;;0.80;;
64854;SDS011;51321;50.428;8.378;2022-09-03T13:58:09;1.63;;;0.80;;
64854;SDS011;51321;50.428;8.378;2022-09-03T14:00:42;3.38;;;0.60;;
64854;SDS011;51321;50.428;8.378;2022-09-03T14:03:09;1.15;;;0.70;;
64854;SDS011;51321;50.428;8.378;2022-09-03T14:05:40;2.80;;;0.80;;
64854;SDS011;51321;50.428;8.378;2022-09-03T14:08:19;1.00;;;0.65;;
64854;SDS011;51321;50.428;8.378;2022-09-03T14:10:53;1.73;;;0.93;;
64854;SDS011;51321;50.428;8.378;2022-09-03T14:13:23;1.40;;;0.90;;
64854;SDS011;51321;50.428;8.378;2022-09-03T14:15:59;1.83;;;1.08;;
64854;SDS011;51321;50.428;8.378;2022-09-03T14:21:08;2.72;;;0.95;;
64854;SDS011;51321;50.428;8.378;2022-09-03T14:23:50;2.97;;;0.77;;
64854;SDS011;51321;50.428;8.378;2022-09-03T14:26:34;2.03;;;1.15;;
64854;SDS011;51321;50.428;8.378;2022-09-03T14:28:58;2.42;;;0.90;;
64854;SDS011;51321;50.428;8.378;2022-09-03T14:31:50;1.80;;;0.80;;
64854;SDS011;51321;50.428;8.378;2022-09-03T14:34:31;0.88;;;0.70;;
64854;SDS011;51321;50.428;8.378;2022-09-03T14:37:16;1.27;;;1.02;;
64854;SDS011;51321;50.428;8.378;2022-09-03T14:40:10;1.40;;;0.90;;
64854;SDS011;51321;50.428;8.378;2022-09-03T14:42:40;2.28;;;1.25;;
64854;SDS011;51321;50.428;8.378;2022-09-03T14:45:29;1.53;;;0.83;;
64854;SDS011;51321;50.428;8.378;2022-09-03T14:48:20;1.75;;;0.98;;
64854;SDS011;51321;50.428;8.378;2022-09-03T14:51:05;5.90;;;0.93;;
64854;SDS011;51321;50.428;8.378;2022-09-03T14:53:46;1.92;;;0.90;;
64854;SDS011;51321;50.428;8.378;2022-09-03T14:56:21;2.15;;;0.90;;
64854;SDS011;51321;50.428;8.378;2022-09-03T14:59:06;3.08;;;0.90;;
64854;SDS011;51321;50.428;8.378;2022-09-03T15:01:42;2.05;;;0.90;;
64854;SDS011;51321;50.428;8.378;2022-09-03T15:07:25;0.98;;;0.73;;
64854;SDS011;51321;50.428;8.378;2022-09-03T15:09:54;1.67;;;0.90;;
64854;SDS011;51321;50.428;8.378;2022-09-03T15:12:32;2.05;;;0.80;;
64854;SDS011;51321;50.428;8.378;2022-09-03T15:15:07;2.10;;;1.30;;
64854;SDS011;51321;50.428;8.378;2022-09-03T15:17:52;1.92;;;1.13;;
64854;SDS011;51321;50.428;8.378;2022-09-03T15:20:30;2.65;;;1.10;;
64854;SDS011;51321;50.428;8.378;2022-09-03T15:23:08;2.30;;;1.00;;
64854;SDS011;51321;50.428;8.378;2022-09-03T15:25:51;2.03;;;1.13;;
64854;SDS011;51321;50.428;8.378;2022-09-03T15:28:37;1.20;;;0.98;;
64854;SDS011;51321;50.428;8.378;2022-09-03T15:31:11;3.23;;;1.10;;
64854;SDS011;51321;50.428;8.378;2022-09-03T15:33:39;0.82;;;0.80;;
64854;SDS011;51321;50.428;8.378;2022-09-03T15:36:11;2.90;;;0.90;;
64854;SDS011;51321;50.428;8.378;2022-09-03T15:38:40;4.00;;;1.30;;
64854;SDS011;51321;50.428;8.378;2022-09-03T15:41:09;1.27;;;1.15;;
64854;SDS011;51321;50.428;8.378;2022-09-03T15:43:42;1.80;;;1.00;;
64854;SDS011;51321;50.428;8.378;2022-09-03T15:46:13;3.03;;;0.88;;
64854;SDS011;51321;50.428;8.378;2022-09-03T15:48:59;1.77;;;1.30;;
64854;SDS011;51321;50.428;8.378;2022-09-03T15:51:29;7.05;;;1.20;;
64854;SDS011;51321;50.428;8.378;2022-09-03T15:53:55;1.52;;;1.17;;
64854;SDS011;51321;50.428;8.378;2022-09-03T15:56:24;1.77;;;1.05;;
64854;SDS011;51321;50.428;8.378;2022-09-03T15:58:50;1.48;;;1.10;;
64854;SDS011;51321;50.428;8.378;2022-09-03T16:01:21;2.05;;;1.00;;
64854;SDS011;51321;50.428;8.378;2022-09-03T16:03:55;1.95;;;0.70;;
64854;SDS011;51321;50.428;8.378;2022-09-03T16:06:30;1.83;;;1.05;;
64854;SDS011;51321;50.428;8.378;2022-09-03T16:08:58;1.38;;;1.00;;
64854;SDS011;51321;50.428;8.378;2022-09-03T16:11:33;2.30;;;0.90;;
64854;SDS011;51321;50.428;8.378;2022-09-03T16:14:02;1.65;;;0.95;;
64854;SDS011;51321;50.428;8.378;2022-09-03T16:16:33;1.23;;;0.90;;
64854;SDS011;51321;50.428;8.378;2022-09-03T16:19:09;2.50;;;1.20;;
64854;SDS011;51321;50.428;8.378;2022-09-03T16:21:37;1.92;;;1.02;;
64854;SDS011;51321;50.428;8.378;2022-09-03T16:24:08;1.58;;;1.20;;
64854;SDS011;51321;50.428;8.378;2022-09-03T16:26:39;2.25;;;1.27;;
64854;SDS011;51321;50.428;8.378;2022-09-03T16:29:10;1.95;;;1.17;;
64854;SDS011;51321;50.428;8.378;2022-09-03T16:34:44;1.48;;;0.80;;
64854;SDS011;51321;50.428;8.378;2022-09-03T16:37:17;1.20;;;1.05;;
64854;SDS011;51321;50.428;8.378;2022-09-03T16:39:50;0.88;;;0.80;;
64854;SDS011;51321;50.428;8.378;2022-09-03T16:42:21;3.10;;;1.27;;
64854;SDS011;51321;50.428;8.378;2022-09-03T16:44:50;2.75;;;2.33;;
64854;SDS011;51321;50.428;8.378;2022-09-03T16:47:25;2.75;;;2.15;;
64854;SDS011;51321;50.428;8.378;2022-09-03T16:49:59;1.92;;;1.60;;
64854;SDS011;51321;50.428;8.378;2022-09-03T16:52:30;3.22;;;1.63;;
64854;SDS011;51321;50.428;8.378;2022-09-03T16:55:05;3.38;;;1.38;;
64854;SDS011;51321;50.428;8.378;2022-09-03T16:57:42;3.67;;;1.40;;
64854;SDS011;51321;50.428;8.378;2022-09-03T17:00:18;1.85;;;1.05;;
64854;SDS011;51321;50.428;8.378;2022-09-03T17:02:55;1.52;;;1.10;;
64854;SDS011;51321;50.428;8.378;2022-09-03T17:05:42;2.85;;;1.52;;
64854;SDS011;51321;50.428;8.378;2022-09-03T17:08:38;2.63;;;1.35;;
64854;SDS011;51321;50.428;8.378;2022-09-03T17:11:17;5.88;;;1.40;;
64854;SDS011;51321;50.428;8.378;2022-09-03T17:14:03;3.67;;;1.08;;
64854;SDS011;51321;50.428;8.378;2022-09-03T17:16:37;2.40;;;1.00;;
64854;SDS011;51321;50.428;8.378;2022-09-03T17:19:16;2.13;;;1.35;;
64854;SDS011;51321;50.428;8.378;2022-09-03T17:21:49;2.40;;;1.07;;
64854;SDS011;51321;50.428;8.378;2022-09-03T17:24:40;3.00;;;0.82;;
64854;SDS011;51321;50.428;8.378;2022-09-03T17:30:19;1.52;;;0.95;;
64854;SDS011;51321;50.428;8.378;2022-09-03T17:35:48;1.13;;;0.80;;
64854;SDS011;51321;50.428;8.378;2022-09-03T17:38:24;0.68;;;0.68;;